Time;durP1;ratioP1;P1;durP2;ratioP2;P2;SDS_P1;SDS_P2;PMS_P1;PMS_P2;Temp;Humidity;BMP_temperature;BMP_pressure;BME280_temperature;BME280_humidity;BME280_pressure;Samples;Min_cycle;Max_cycle;Signal;HPM_P1;HPM_P2
2023/05/15 00:00:59;;;;;;;3.78;0.95;;;;;;;21.37;58.72;100495.63;5075141;28;20048;-52
2023/05/15 00:03:27;;;;;;;1.90;1.00;;;;;;;21.36;58.47;100485.84;5075066;28;20048;-54
2023/05/15 00:05:55;;;;;;;2.30;1.00;;;;;;;21.36;58.64;100485.84;5074904;28;20047;-53
2023/05/15 00:08:22;;;;;;;1.80;0.98;;;;;;;;;;5074663;28;20037;-53
2023/05/15 00:10:49;;;;;;;2.53;1.08;;;;;;;;;;5074662;28;20048;-53
2023/05/15 00:13:28;;;;;;;2.55;1.08;;;;;;;;;;5074834;28;20059;-52
2023/05/15 00:15:55;;;;;;;2.22;1.05;;;;;;;21.37;58.42;100484.00;5074440;28;20048;-52
2023/05/15 00:18:22;;;;;;;1.75;0.80;;;;;;;21.36;58.55;100479.63;5074631;28;20048;-53
2023/05/15 00:20:51;;;;;;;2.20;0.77;;;;;;;21.36;58.43;100468.84;5074464;28;20044;-57
2023/05/15 00:23:18;;;;;;;2.28;1.02;;;;;;;21.34;58.56;100478.91;5074199;28;20059;-57
2023/05/15 00:25:46;;;;;;;2.50;1.20;;;;;;;21.36;58.42;100460.78;5074325;28;20059;-57
2023/05/15 00:28:13;;;;;;;2.13;0.80;;;;;;;;;;5074169;28;20400;-57
2023/05/15 00:30:40;;;;;;;1.90;0.88;;;;;;;21.34;58.44;100457.38;5073220;28;20495;-57
2023/05/15 00:33:08;;;;;;;2.15;0.98;;;;;;;21.35;58.55;100467.13;5073281;28;20079;-57
2023/05/15 00:35:36;;;;;;;1.90;1.00;;;;;;;21.36;58.45;100468.84;5074436;28;20427;-57
2023/05/15 00:38:03;;;;;;;1.77;1.00;;;;;;;21.35;58.53;100469.81;5074266;28;20044;-57
2023/05/15 00:40:32;;;;;;;2.30;0.90;;;;;;;21.35;58.43;100467.13;5074176;28;20495;-57
2023/05/15 00:43:00;;;;;;;2.13;1.27;;;;;;;21.33;58.43;100463.75;5073853;28;20048;-57
2023/05/15 00:45:29;;;;;;;3.05;1.52;;;;;;;21.33;58.48;100464.59;5073001;28;20064;-57
2023/05/15 00:47:57;;;;;;;4.00;1.63;;;;;;;21.34;58.50;100457.38;5073742;28;20047;-57
2023/05/15 00:50:25;;;;;;;2.03;0.93;;;;;;;21.33;58.39;100461.91;5072924;28;20059;-57
2023/05/15 00:52:54;;;;;;;2.17;1.08;;;;;;;21.33;58.50;100459.22;5074000;28;20048;-57
2023/05/15 00:55:21;;;;;;;1.88;0.95;;;;;;;21.33;58.38;100453.84;5072925;28;20488;-57
2023/05/15 00:57:52;;;;;;;2.83;0.90;;;;;;;21.33;58.40;100456.53;5073783;28;20044;-57
2023/05/15 01:00:20;;;;;;;3.42;1.40;;;;;;;21.33;58.44;100444.91;5072594;28;20048;-53
2023/05/15 01:02:47;;;;;;;1.73;0.82;;;;;;;21.32;58.40;100449.47;5073068;28;20048;-54
2023/05/15 01:05:14;;;;;;;2.78;1.00;;;;;;;21.33;58.45;100455.69;5072264;28;20412;-54
2023/05/15 01:07:55;;;;;;;1.55;0.80;;;;;;;21.34;58.48;100443.91;5073584;28;20040;-52
2023/05/15 01:10:24;;;;;;;1.80;0.80;;;;;;;21.35;58.49;100440.22;5073397;28;20048;-57
2023/05/15 01:12:54;;;;;;;2.72;0.85;;;;;;;21.33;58.50;100443.06;5072342;28;20052;-57
2023/05/15 01:15:22;;;;;;;3.13;1.00;;;;;;;21.33;58.39;100444.91;5072210;28;20052;-57
2023/05/15 01:17:50;;;;;;;2.08;1.08;;;;;;;21.34;58.46;100433.13;5072189;28;20045;-57
2023/05/15 01:20:21;;;;;;;2.03;1.00;;;;;;;21.35;58.54;100434.81;5073505;28;20048;-53
2023/05/15 01:22:52;;;;;;;1.60;0.80;;;;;;;21.34;58.71;100438.53;5073401;28;20404;-54
2023/05/15 01:25:22;;;;;;;2.20;1.08;;;;;;;21.33;58.71;100431.47;5073206;28;20049;-53
2023/05/15 01:27:53;;;;;;;1.60;0.70;;;;;;;21.35;58.60;100432.13;5071887;28;20397;-53
2023/05/15 01:30:33;;;;;;;2.38;0.90;;;;;;;21.34;58.64;100427.75;5073335;28;20492;-57
2023/05/15 01:33:25;;;;;;;1.52;0.90;;;;;;;21.34;58.60;100427.75;5073112;28;20060;-57
2023/05/15 01:36:17;;;;;;;2.40;1.13;;;;;;;21.34;58.36;100430.44;5072257;28;20053;-57
2023/05/15 01:38:55;;;;;;;1.77;0.90;;;;;;;21.33;58.37;100420.69;5073453;28;20063;-57
2023/05/15 01:41:44;;;;;;;2.97;0.77;;;;;;;21.32;58.45;100419.84;5073370;28;20061;-57
2023/05/15 01:44:36;;;;;;;2.20;0.90;;;;;;;21.33;58.44;100420.69;5072546;28;20048;-57
2023/05/15 01:47:08;;;;;;;1.60;0.80;;;;;;;21.31;58.35;100418.13;5072858;28;20048;-57
2023/05/15 01:49:37;;;;;;;1.83;0.90;;;;;;;21.32;58.28;100416.28;5072990;28;20045;-57
2023/05/15 01:52:17;;;;;;;2.55;0.80;;;;;;;21.31;58.18;100418.13;5071886;28;20056;-57
2023/05/15 01:54:46;;;;;;;1.88;0.80;;;;;;;21.31;58.13;100418.13;5073224;28;20049;-57
2023/05/15 01:57:15;;;;;;;1.80;0.80;;;;;;;21.31;58.23;100425.31;5073173;28;20056;-58
2023/05/15 01:59:44;;;;;;;1.52;0.75;;;;;;;21.31;58.12;100422.63;5072205;28;20523;-52
2023/05/15 02:02:12;;;;;;;1.65;0.90;;;;;;;21.30;58.22;100419.09;5071846;28;20487;-54
2023/05/15 02:04:42;;;;;;;2.58;0.90;;;;;;;21.30;58.20;100427.19;5072977;28;20045;-51
2023/05/15 02:07:10;;;;;;;1.67;0.77;;;;;;;21.31;58.20;100428.03;5073063;28;20492;-49
2023/05/15 02:09:40;;;;;;;2.45;0.95;;;;;;;21.30;58.17;100423.66;5071830;28;20064;-54
2023/05/15 02:12:09;;;;;;;1.95;0.93;;;;;;;21.30;58.12;100413.72;5071981;28;20048;-53
2023/05/15 02:14:39;;;;;;;3.00;0.90;;;;;;;21.30;58.33;100416.41;5072247;28;20053;-51
2023/05/15 02:17:07;;;;;;;2.17;0.90;;;;;;;21.30;57.98;100410.19;5072940;28;20059;-51
2023/05/15 02:19:35;;;;;;;2.58;1.20;;;;;;;21.31;57.96;100417.25;5073126;28;20036;-50
2023/05/15 02:22:02;;;;;;;2.30;0.82;;;;;;;21.29;57.99;100412.03;5073038;28;20484;-57
2023/05/15 02:24:30;;;;;;;2.65;0.80;;;;;;;21.29;57.91;100413.88;5073390;28;20056;-57
2023/05/15 02:27:11;;;;;;;2.33;0.90;;;;;;;21.28;57.97;100407.66;5072952;28;20055;-57
2023/05/15 02:29:57;;;;;;;1.52;0.63;;;;;;;21.28;57.95;100406.81;5073053;28;20044;-51
2023/05/15 02:32:45;;;;;;;1.80;0.85;;;;;;;21.29;57.92;100403.97;5072699;28;20053;-53
2023/05/15 02:35:36;;;;;;;1.70;0.88;;;;;;;21.27;57.88;100408.66;5071722;28;20102;-51
2023/05/15 02:38:08;;;;;;;1.77;0.80;;;;;;;21.28;57.85;100401.44;5075011;28;20051;-50
2023/05/15 02:40:37;;;;;;;1.83;0.73;;;;;;;21.28;57.69;100396.03;5076494;28;20045;-53
2023/05/15 02:43:07;;;;;;;3.05;1.33;;;;;;;21.28;57.95;100398.75;5076852;28;20515;-51
2023/05/15 02:45:35;;;;;;;1.77;0.90;;;;;;;21.28;58.00;100399.59;5076421;28;20059;-52
2023/05/15 02:48:04;;;;;;;2.28;0.82;;;;;;;21.28;57.85;100401.44;5076406;28;20045;-51
2023/05/15 02:50:31;;;;;;;1.58;0.63;;;;;;;21.28;58.03;100393.34;5075265;28;20048;-57
2023/05/15 02:53:06;;;;;;;1.50;0.70;;;;;;;21.28;57.98;100390.66;5074988;28;20048;-57
2023/05/15 02:55:33;;;;;;;1.40;0.60;;;;;;;21.28;57.94;100396.88;5076744;28;20048;-57
2023/05/15 02:58:02;;;;;;;3.65;0.98;;;;;;;21.27;57.89;100388.94;5076224;28;20055;-57
2023/05/15 03:00:29;;;;;;;1.45;0.65;;;;;;;21.28;57.93;100391.50;5076097;28;20049;-57
2023/05/15 03:02:57;;;;;;;1.95;0.80;;;;;;;21.27;57.93;100384.44;5076296;28;20051;-57
2023/05/15 03:05:24;;;;;;;1.63;0.70;;;;;;;21.26;58.01;100382.72;5076167;28;20052;-57
2023/05/15 03:07:52;;;;;;;1.95;0.75;;;;;;;21.27;57.97;100379.06;5074683;28;20056;-55
2023/05/15 03:10:22;;;;;;;0.85;0.50;;;;;;;21.27;57.88;100379.06;5075561;28;20048;-54
2023/05/15 03:12:49;;;;;;;1.38;0.70;;;;;;;21.26;57.90;100377.34;5075967;28;20049;-55
2023/05/15 03:15:18;;;;;;;1.52;0.80;;;;;;;21.27;57.91;100378.19;5075793;28;20515;-55
2023/05/15 03:17:45;;;;;;;2.25;0.98;;;;;;;21.27;57.92;100388.94;5076057;28;20386;-54
2023/05/15 03:20:13;;;;;;;3.13;0.65;;;;;;;21.26;57.90;100385.41;5076745;28;20049;-54
2023/05/15 03:22:40;;;;;;;1.58;0.75;;;;;;;21.26;57.95;100393.50;5075006;28;20057;-54
2023/05/15 03:25:11;;;;;;;1.75;0.70;;;;;;;21.27;58.09;100392.50;5074757;28;20055;-55
2023/05/15 03:27:38;;;;;;;2.17;0.93;;;;;;;21.27;58.04;100389.81;5074319;28;20040;-55
2023/05/15 03:30:06;;;;;;;1.95;0.70;;;;;;;21.27;58.10;100389.81;5074375;28;20362;-48
2023/05/15 03:32:34;;;;;;;1.55;0.68;;;;;;;21.28;58.08;100385.28;5075324;28;20477;-49
2023/05/15 03:35:02;;;;;;;2.58;0.80;;;;;;;21.28;58.12;100382.59;5075466;28;20052;-52
2023/05/15 03:37:29;;;;;;;1.58;0.90;;;;;;;21.28;58.08;100387.97;5074034;28;20503;-51
2023/05/15 03:39:57;;;;;;;2.13;0.93;;;;;;;21.28;58.13;100396.03;5076083;28;20048;-49
2023/05/15 03:42:24;;;;;;;2.15;0.82;;;;;;;21.29;58.19;100397.72;5075312;28;20051;-53
2023/05/15 03:44:52;;;;;;;1.45;0.80;;;;;;;21.29;57.97;100392.34;5075442;28;20048;-50
2023/05/15 03:47:19;;;;;;;1.77;0.70;;;;;;;21.29;57.46;100390.50;5075337;28;20049;-53
2023/05/15 03:49:46;;;;;;;2.10;0.70;;;;;;;21.29;57.71;100389.66;5074451;28;20063;-52
2023/05/15 03:52:14;;;;;;;1.70;0.60;;;;;;;21.29;57.93;100385.09;5075249;28;20040;-53
2023/05/15 03:54:42;;;;;;;3.15;1.10;;;;;;;21.30;58.09;100385.94;5075096;28;20045;-57
2023/05/15 03:57:09;;;;;;;1.60;0.70;;;;;;;21.29;58.32;100385.09;5075218;28;20044;-57
2023/05/15 03:59:37;;;;;;;1.45;0.75;;;;;;;21.30;58.21;100385.94;5074866;28;20041;-54
2023/05/15 04:02:04;;;;;;;1.70;0.60;;;;;;;21.29;58.29;100376.19;5075969;28;20052;-50
2023/05/15 04:04:32;;;;;;;3.25;0.85;;;;;;;21.28;58.28;100378.03;5075063;28;20052;-53
2023/05/15 04:06:59;;;;;;;3.05;1.00;;;;;;;21.28;58.17;100382.59;5074949;28;20052;-53
2023/05/15 04:09:27;;;;;;;1.70;0.90;;;;;;;21.29;58.11;100390.50;5074688;28;20044;-51
2023/05/15 04:11:54;;;;;;;1.67;1.00;;;;;;;21.28;58.13;100387.97;5074811;28;20404;-57
2023/05/15 04:14:21;;;;;;;3.00;0.70;;;;;;;21.28;58.10;100385.28;5074547;28;20063;-57
2023/05/15 04:16:48;;;;;;;1.67;0.70;;;;;;;21.28;58.04;100387.97;5074767;28;20041;-57
2023/05/15 04:19:16;;;;;;;1.63;0.60;;;;;;;21.26;57.94;100382.72;5074918;28;20045;-57
2023/05/15 04:21:43;;;;;;;1.60;0.75;;;;;;;21.26;57.87;100384.56;5073765;28;20044;-51
2023/05/15 04:24:11;;;;;;;3.30;1.27;;;;;;;21.25;57.88;100381.03;5074523;28;20056;-50
2023/05/15 04:26:38;;;;;;;1.70;0.63;;;;;;;21.26;57.97;100371.94;5074648;28;20045;-52
2023/05/15 04:29:05;;;;;;;1.52;0.77;;;;;;;21.24;57.89;100371.28;5074545;28;20044;-51
2023/05/15 04:31:33;;;;;;;2.38;0.93;;;;;;;21.25;57.92;100372.97;5074624;28;20048;-54
2023/05/15 04:34:02;;;;;;;1.83;0.73;;;;;;;21.24;57.95;100380.19;5074379;28;20059;-50
2023/05/15 04:36:30;;;;;;;1.60;0.70;;;;;;;21.25;58.00;100381.03;5074125;28;20071;-52
2023/05/15 04:38:58;;;;;;;1.65;0.63;;;;;;;21.23;57.92;100378.50;5074193;28;20400;-51
2023/05/15 04:41:25;;;;;;;2.13;0.95;;;;;;;21.23;57.93;100386.59;5074399;28;20048;-52
2023/05/15 04:43:52;;;;;;;3.45;1.10;;;;;;;21.24;57.78;100384.75;5074249;28;20422;-54
2023/05/15 04:46:20;;;;;;;2.47;1.05;;;;;;;21.23;57.83;100391.97;5074147;28;20052;-51
2023/05/15 04:48:47;;;;;;;2.88;0.95;;;;;;;21.23;57.70;100391.97;5074047;28;20040;-53
2023/05/15 04:51:15;;;;;;;2.00;0.90;;;;;;;21.22;57.47;100387.56;5074577;28;20048;-57
2023/05/15 04:53:42;;;;;;;2.40;0.80;;;;;;;21.23;57.64;100391.97;5073951;28;20052;-57
2023/05/15 04:56:09;;;;;;;4.30;0.90;;;;;;;21.21;57.59;100391.25;5073861;28;20055;-57
2023/05/15 04:58:37;;;;;;;1.88;0.82;;;;;;;21.23;57.69;100391.13;5073793;28;20048;-57
2023/05/15 05:01:04;;;;;;;1.52;0.65;;;;;;;21.22;57.77;100394.81;5073055;28;20048;-51
2023/05/15 05:03:31;;;;;;;3.50;1.00;;;;;;;21.22;57.86;100387.56;5073684;28;20480;-51
2023/05/15 05:05:59;;;;;;;1.65;0.70;;;;;;;21.21;57.80;100404.72;5073736;28;20052;-53
2023/05/15 05:08:26;;;;;;;1.75;0.65;;;;;;;21.23;57.84;100396.50;5073636;28;20045;-54
2023/05/15 05:10:57;;;;;;;2.22;0.80;;;;;;;21.22;57.79;100398.34;5072419;28;20055;-57
2023/05/15 05:13:24;;;;;;;0.85;0.50;;;;;;;21.21;57.66;100407.41;5073751;28;20048;-57
2023/05/15 05:15:52;;;;;;;2.40;0.88;;;;;;;21.21;57.77;100402.03;5073506;28;20443;-57
2023/05/15 05:18:19;;;;;;;1.85;0.82;;;;;;;21.21;57.60;100406.56;5073365;28;20049;-58
2023/05/15 05:20:46;;;;;;;2.85;1.00;;;;;;;21.21;57.64;100410.09;5073674;28;20047;-57
2023/05/15 05:23:14;;;;;;;4.15;1.45;;;;;;;21.20;57.58;100405.72;5073782;28;20045;-57
2023/05/15 05:25:41;;;;;;;1.85;0.75;;;;;;;21.20;57.61;100405.72;5073647;28;20465;-57
2023/05/15 05:28:08;;;;;;;2.03;0.88;;;;;;;21.21;57.71;100399.34;5073612;28;20074;-57
2023/05/15 05:30:36;;;;;;;2.22;0.80;;;;;;;21.21;57.70;100396.66;5073439;28;20043;-57
2023/05/15 05:33:03;;;;;;;2.00;0.70;;;;;;;21.21;57.90;100395.81;5073895;28;20072;-52
2023/05/15 05:35:30;;;;;;;1.35;0.68;;;;;;;21.21;58.11;100387.72;5073600;28;20051;-50
2023/05/15 05:37:58;;;;;;;1.58;0.60;;;;;;;21.21;57.70;100383.19;5073566;28;20051;-53
2023/05/15 05:40:25;;;;;;;2.28;1.20;;;;;;;21.20;58.14;100378.81;5073367;28;20388;-57
2023/05/15 05:42:53;;;;;;;3.80;0.80;;;;;;;21.19;57.94;100382.50;5073300;28;20057;-57
2023/05/15 05:45:20;;;;;;;1.83;0.70;;;;;;;21.20;57.82;100386.88;5073227;28;20051;-57
2023/05/15 05:47:50;;;;;;;1.85;0.80;;;;;;;21.20;57.92;100386.88;5073349;28;20044;-57
2023/05/15 05:50:18;;;;;;;1.40;0.73;;;;;;;21.21;58.04;100383.19;5073264;28;20051;-57
2023/05/15 05:52:45;;;;;;;1.70;0.63;;;;;;;21.21;57.94;100380.50;5073281;28;20044;-57
2023/05/15 05:55:13;;;;;;;2.90;0.93;;;;;;;21.21;57.92;100376.97;5073064;28;20044;-57
2023/05/15 05:57:40;;;;;;;1.40;0.63;;;;;;;21.20;57.96;100381.50;5073400;28;20041;-58
2023/05/15 06:00:09;;;;;;;3.17;0.80;;;;;;;21.21;57.98;100380.50;5073375;28;20051;-57
2023/05/15 06:02:37;;;;;;;1.15;0.57;;;;;;;21.22;57.90;100378.66;5073293;28;20044;-57
2023/05/15 06:05:06;;;;;;;3.58;1.25;;;;;;;21.22;57.78;100375.97;5073293;28;20376;-57
2023/05/15 06:07:34;;;;;;;2.35;0.82;;;;;;;21.21;57.67;100383.19;5073336;28;20049;-57
2023/05/15 06:10:01;;;;;;;2.80;0.90;;;;;;;21.22;57.33;100381.34;5073039;28;20052;-57
2023/05/15 06:12:29;;;;;;;3.00;1.13;;;;;;;21.23;57.55;100388.44;5074078;28;20047;-57
2023/05/15 06:14:56;;;;;;;2.38;1.10;;;;;;;21.23;57.79;100383.91;5076964;28;20468;-57
2023/05/15 06:17:23;;;;;;;1.88;0.70;;;;;;;21.23;57.65;100388.44;5075979;28;20522;-57
2023/05/15 06:19:51;;;;;;;2.40;0.88;;;;;;;21.24;57.45;100398.19;5076902;28;20384;-56
2023/05/15 06:22:18;;;;;;;3.10;1.92;;;;;;;21.19;55.61;100392.44;5076995;28;20047;-52
2023/05/15 06:24:45;;;;;;;3.22;1.95;;;;;;;21.14;54.70;100390.19;5076887;28;20045;-54
2023/05/15 06:27:12;;;;;;;3.85;2.33;;;;;;;21.07;53.66;100388.28;5077079;28;20044;-54
2023/05/15 06:29:39;;;;;;;3.80;1.90;;;;;;;21.02;53.72;100390.56;5076732;28;20049;-53
2023/05/15 06:32:07;;;;;;;4.05;2.10;;;;;;;20.97;53.25;100382.97;5076613;28;20392;-53
2023/05/15 06:34:34;;;;;;;4.13;2.22;;;;;;;20.94;53.26;100394.03;5076873;28;20049;-53
2023/05/15 06:37:01;;;;;;;3.10;1.77;;;;;;;20.93;53.45;100387.81;5076840;28;20473;-55
2023/05/15 06:39:29;;;;;;;4.18;1.90;;;;;;;20.91;53.48;100394.34;5076668;28;20412;-56
2023/05/15 06:42:00;;;;;;;3.22;1.95;;;;;;;20.89;53.42;100396.34;5076642;28;20480;-55
2023/05/15 06:44:30;;;;;;;2.83;2.08;;;;;;;20.89;53.60;100402.56;5076967;28;20053;-55
2023/05/15 06:46:57;;;;;;;3.53;1.90;;;;;;;20.86;53.46;100402.84;5076489;28;20052;-55
2023/05/15 06:49:25;;;;;;;3.75;1.48;;;;;;;20.84;53.45;100406.72;5076568;28;20041;-55
2023/05/15 06:51:55;;;;;;;2.53;1.50;;;;;;;20.83;53.41;100408.56;5076449;28;20056;-58
2023/05/15 06:54:23;;;;;;;2.72;1.55;;;;;;;20.84;53.52;100399.50;5076317;28;20484;-59
2023/05/15 06:56:50;;;;;;;2.90;1.50;;;;;;;20.85;53.38;100403.03;5076371;28;20048;-59
2023/05/15 06:59:17;;;;;;;4.38;1.73;;;;;;;20.84;53.21;100398.66;5075843;28;20036;-59
2023/05/15 07:01:45;;;;;;;2.67;1.58;;;;;;;20.81;53.27;100390.88;5089863;28;20048;-51
2023/05/15 07:04:12;;;;;;;2.47;1.40;;;;;;;20.82;53.25;100395.25;5095985;28;20051;-53
2023/05/15 07:06:40;;;;;;;3.83;1.70;;;;;;;20.82;53.00;100406.00;5094797;28;20055;-52
2023/05/15 07:09:08;;;;;;;2.67;1.58;;;;;;;20.81;53.06;100415.94;5096045;28;20052;-52
2023/05/15 07:11:37;;;;;;;3.70;1.90;;;;;;;20.81;52.90;100405.16;5096233;28;20036;-59
2023/05/15 07:14:05;;;;;;;4.45;1.80;;;;;;;20.84;52.86;100409.41;5095956;28;20506;-59
2023/05/15 07:16:32;;;;;;;3.35;1.98;;;;;;;20.86;52.85;100394.78;5095889;28;20040;-59
2023/05/15 07:19:00;;;;;;;3.40;2.40;;;;;;;20.91;52.97;100405.97;5095621;28;20052;-59
2023/05/15 07:21:27;;;;;;;5.80;2.05;;;;;;;20.95;52.84;100403.81;5095692;28;20063;-59
2023/05/15 07:23:55;;;;;;;4.30;2.47;;;;;;;20.99;52.55;100405.19;5094613;28;20071;-60
2023/05/15 07:26:22;;;;;;;5.88;2.17;;;;;;;21.03;52.40;100400.38;5095347;28;20044;-59
2023/05/15 07:29:02;;;;;;;2.85;1.75;;;;;;;21.07;52.31;100407.13;5095357;28;20110;-59
2023/05/15 07:31:32;;;;;;;4.97;2.00;;;;;;;21.09;52.21;100405.13;5095747;28;20058;-59
2023/05/15 07:33:59;;;;;;;3.63;2.28;;;;;;;21.09;52.17;100405.97;5095489;28;20075;-58
2023/05/15 07:36:27;;;;;;;3.05;1.77;;;;;;;21.10;52.18;100398.72;5095599;28;20036;-58
2023/05/15 07:38:54;;;;;;;3.25;1.90;;;;;;;21.12;52.27;100386.81;5095384;28;20472;-58
2023/05/15 07:41:21;;;;;;;4.13;2.00;;;;;;;21.16;52.35;100385.50;5094885;28;20047;-50
2023/05/15 07:43:49;;;;;;;5.30;2.28;;;;;;;21.16;52.45;100385.50;5095374;28;20046;-50
2023/05/15 07:46:16;;;;;;;2.72;1.13;;;;;;;21.18;52.42;100396.94;5095165;28;20059;-49
2023/05/15 07:48:43;;;;;;;3.30;1.67;;;;;;;21.21;52.48;100396.66;5095569;28;20044;-49
2023/05/15 07:51:11;;;;;;;2.17;0.98;;;;;;;21.24;52.41;100390.97;5095089;28;20376;-49
2023/05/15 07:53:38;;;;;;;2.80;1.58;;;;;;;21.29;52.43;100386.97;5095548;28;20040;-50
2023/05/15 07:56:05;;;;;;;3.15;1.10;;;;;;;21.32;52.61;100386.66;5094409;28;20068;-49
2023/05/15 07:58:37;;;;;;;3.00;1.20;;;;;;;21.35;52.05;100378.28;5094753;28;20048;-50
2023/05/15 08:01:04;;;;;;;2.90;1.60;;;;;;;;;;5095884;28;20495;-60
2023/05/15 08:03:32;;;;;;;3.08;1.30;;;;;;;21.37;51.94;100365.53;5095105;28;20051;-59
2023/05/15 08:06:00;;;;;;;2.53;1.17;;;;;;;21.40;52.11;100354.44;5094774;28;20071;-60
2023/05/15 08:08:27;;;;;;;3.03;1.30;;;;;;;21.43;51.77;100352.28;5095028;28;20051;-59
2023/05/15 08:10:54;;;;;;;3.13;1.00;;;;;;;21.44;51.78;100353.13;5094738;28;20491;-60
2023/05/15 08:13:22;;;;;;;1.90;1.02;;;;;;;21.46;51.85;100356.50;5095085;28;20052;-60
2023/05/15 08:15:49;;;;;;;2.50;1.35;;;;;;;21.46;51.78;100359.19;5094816;28;20479;-60
2023/05/15 08:18:16;;;;;;;1.80;0.80;;;;;;;21.48;52.09;100362.59;5094492;28;20498;-60
2023/05/15 08:20:44;;;;;;;2.22;1.23;;;;;;;21.48;52.17;100363.41;5094684;28;20051;-48
2023/05/15 08:23:11;;;;;;;2.40;1.20;;;;;;;21.49;51.63;100372.34;5094806;28;20052;-48
2023/05/15 08:25:41;;;;;;;2.35;1.20;;;;;;;21.50;51.19;100374.03;5094061;28;20040;-49
2023/05/15 08:28:09;;;;;;;2.10;1.15;;;;;;;21.51;51.11;100369.47;5094463;28;20063;-49
2023/05/15 08:30:36;;;;;;;1.92;1.08;;;;;;;21.53;50.84;100379.09;5094363;28;20051;-49
2023/05/15 08:33:04;;;;;;;2.28;0.77;;;;;;;21.53;51.39;100383.66;5094499;28;20048;-49
2023/05/15 08:35:31;;;;;;;1.67;0.80;;;;;;;21.54;51.67;100380.78;5094255;28;20048;-49
2023/05/15 08:37:59;;;;;;;1.70;0.90;;;;;;;21.56;51.67;100389.56;5094036;28;20507;-50
2023/05/15 08:40:27;;;;;;;1.20;0.60;;;;;;;21.57;51.83;100387.72;5094254;28;20048;-49
2023/05/15 08:43:03;;;;;;;1.90;0.80;;;;;;;21.57;51.88;100385.88;5094348;28;20059;-50
2023/05/15 08:45:30;;;;;;;;;;;;;;;21.58;51.94;100395.63;5094646;28;20048;-48
2023/05/15 08:47:59;;;;;;;1.48;0.65;;;;;;;21.60;51.95;100390.94;5093766;28;19920;-47
2023/05/15 08:50:28;;;;;;;1.95;0.80;;;;;;;21.61;52.07;100392.63;5094279;28;20063;-49
2023/05/15 08:52:58;;;;;;;1.73;0.65;;;;;;;21.62;52.17;100391.63;5094393;28;20051;-48
2023/05/15 08:55:26;;;;;;;1.27;0.60;;;;;;;21.63;52.26;100390.66;5094011;28;20056;-50
2023/05/15 08:57:54;;;;;;;2.50;0.60;;;;;;;21.63;52.34;100390.66;5094035;28;20040;-49
2023/05/15 09:00:22;;;;;;;1.83;0.73;;;;;;;21.63;52.48;100385.25;5093844;28;20048;-48
2023/05/15 09:02:49;;;;;;;1.38;0.70;;;;;;;21.64;52.42;100389.63;5092572;28;20040;-49
2023/05/15 09:05:16;;;;;;;0.93;0.52;;;;;;;21.65;52.67;100390.47;5093399;28;20044;-48
2023/05/15 09:07:45;;;;;;;1.00;0.70;;;;;;;21.66;52.59;100384.91;5093056;28;20055;-48
2023/05/15 09:10:13;;;;;;;2.10;0.80;;;;;;;21.68;52.56;100395.56;5093256;28;20048;-59
2023/05/15 09:12:43;;;;;;;1.60;0.75;;;;;;;21.69;52.64;100394.53;5093841;28;20044;-59
2023/05/15 09:15:21;;;;;;;1.80;1.00;;;;;;;21.68;52.74;100393.69;5093554;28;20055;-59
2023/05/15 09:17:49;;;;;;;1.52;0.60;;;;;;;21.70;52.56;100386.28;5093629;28;20052;-59
2023/05/15 09:20:29;;;;;;;1.52;0.70;;;;;;;21.70;52.66;100382.75;5093663;28;20388;-59
2023/05/15 09:22:58;;;;;;;2.03;0.85;;;;;;;21.70;52.65;100375.50;5093147;28;20059;-59
2023/05/15 09:25:33;;;;;;;1.35;0.70;;;;;;;21.71;52.71;100373.66;5093543;28;20163;-59
2023/05/15 09:28:01;;;;;;;2.50;0.90;;;;;;;21.71;52.81;100369.16;5093450;28;20044;-59
2023/05/15 09:30:29;;;;;;;2.25;0.60;;;;;;;21.71;52.75;100366.44;5093502;28;20066;-52
2023/05/15 09:33:02;;;;;;;1.55;0.70;;;;;;;21.72;52.88;100376.22;5091856;28;20048;-48
2023/05/15 09:35:31;;;;;;;1.30;0.70;;;;;;;21.73;52.80;100363.59;5093175;28;20048;-48
2023/05/15 09:37:59;;;;;;;1.00;0.43;;;;;;;21.73;52.81;100363.59;5093124;28;20047;-48
2023/05/15 09:40:30;;;;;;;1.70;0.60;;;;;;;21.73;52.78;100361.72;5093833;28;20060;-58
2023/05/15 09:42:58;;;;;;;1.63;0.82;;;;;;;21.73;52.67;100356.34;5093507;28;20047;-59
2023/05/15 09:45:28;;;;;;;1.05;0.43;;;;;;;21.73;52.83;100356.34;5093635;28;20412;-59
2023/05/15 09:48:01;;;;;;;1.02;0.60;;;;;;;21.73;52.72;100361.72;5092429;28;20056;-59
2023/05/15 09:50:38;;;;;;;1.67;0.60;;;;;;;21.73;52.77;100363.59;5093184;28;20059;-59
2023/05/15 09:53:10;;;;;;;1.02;0.55;;;;;;;21.72;52.90;100354.66;5093290;28;20045;-59
2023/05/15 09:55:37;;;;;;;1.08;0.45;;;;;;;21.73;52.84;100344.72;5093146;28;20392;-60
2023/05/15 09:58:05;;;;;;;1.50;0.50;;;;;;;21.72;52.91;100343.88;5092922;28;20055;-59
2023/05/15 10:00:33;;;;;;;1.80;0.80;;;;;;;21.73;53.04;100345.56;5093277;28;20044;-59
2023/05/15 10:03:04;;;;;;;0.73;0.35;;;;;;;21.72;52.95;100346.56;5093057;28;20052;-59
2023/05/15 10:05:32;;;;;;;1.63;0.80;;;;;;;21.73;53.03;100347.41;5093223;28;20052;-59
2023/05/15 10:08:10;;;;;;;0.68;0.40;;;;;;;21.73;53.07;100342.03;5092927;28;20056;-48
2023/05/15 10:10:37;;;;;;;1.10;0.50;;;;;;;21.73;53.14;100325.88;5092637;28;20645;-59
2023/05/15 10:13:06;;;;;;;1.35;0.60;;;;;;;21.72;53.10;100319.63;5092324;28;20065;-59
2023/05/15 10:15:34;;;;;;;2.13;0.70;;;;;;;21.71;52.98;100326.03;5092883;28;20044;-59
2023/05/15 10:18:03;;;;;;;1.90;0.43;;;;;;;21.72;52.83;100326.88;5093112;28;20377;-59
2023/05/15 10:20:34;;;;;;;1.83;0.70;;;;;;;21.72;52.99;100327.72;5093212;28;20044;-59
2023/05/15 10:23:05;;;;;;;1.08;0.50;;;;;;;21.71;52.90;100326.03;5092310;28;20051;-59
2023/05/15 10:25:47;;;;;;;2.22;0.90;;;;;;;21.70;52.64;100335.09;5093084;28;20411;-59
2023/05/15 10:28:16;;;;;;;2.30;1.10;;;;;;;21.70;52.25;100337.78;5092704;28;20043;-59
2023/05/15 10:30:44;;;;;;;1.75;0.80;;;;;;;21.70;52.46;100342.34;5092930;28;20048;-59
2023/05/15 10:33:12;;;;;;;1.27;0.43;;;;;;;21.70;52.95;100339.66;5092504;28;20044;-59
2023/05/15 10:35:41;;;;;;;0.93;0.47;;;;;;;21.71;52.93;100341.34;5092662;28;20063;-59
2023/05/15 10:38:10;;;;;;;1.73;0.80;;;;;;;21.71;53.11;100327.84;5092541;28;20056;-59
2023/05/15 10:40:39;;;;;;;1.63;0.65;;;;;;;21.71;52.91;100323.34;5093081;28;20040;-57
2023/05/15 10:43:09;;;;;;;1.02;0.40;;;;;;;21.72;53.15;100327.72;5092071;28;20048;-57
2023/05/15 10:45:36;;;;;;;1.40;0.60;;;;;;;21.73;53.24;100320.47;5093017;28;20052;-57
2023/05/15 10:48:06;;;;;;;2.03;0.90;;;;;;;21.73;53.28;100321.31;5092023;28;20071;-57
2023/05/15 10:50:36;;;;;;;1.10;0.55;;;;;;;21.73;53.10;100315.94;5093066;28;20380;-57
2023/05/15 10:53:04;;;;;;;1.75;0.50;;;;;;;21.73;53.25;100317.78;5092982;28;20051;-57
2023/05/15 10:55:31;;;;;;;1.63;0.70;;;;;;;21.74;53.27;100314.06;5092609;28;20071;-57
2023/05/15 10:57:59;;;;;;;1.52;0.60;;;;;;;21.75;53.36;100315.75;5092796;28;20056;-57
2023/05/15 11:00:32;;;;;;;2.05;0.68;;;;;;;21.76;53.56;100319.31;5095087;28;20044;-48
2023/05/15 11:03:00;;;;;;;1.67;0.90;;;;;;;21.75;53.54;100310.38;5096669;28;20040;-57
2023/05/15 11:05:29;;;;;;;1.38;0.60;;;;;;;21.77;53.59;100310.22;5096626;28;20044;-57
2023/05/15 11:08:17;;;;;;;2.45;0.70;;;;;;;21.75;53.75;100315.75;5096504;28;20048;-57
2023/05/15 11:10:47;;;;;;;1.58;0.75;;;;;;;21.75;53.95;100309.53;5096190;28;20044;-49
2023/05/15 11:13:14;;;;;;;2.03;0.77;;;;;;;21.76;54.12;100303.16;5096173;28;20044;-48
2023/05/15 11:15:43;;;;;;;1.92;0.50;;;;;;;21.75;54.10;100302.28;5096441;28;20044;-48
2023/05/15 11:18:11;;;;;;;1.95;0.75;;;;;;;21.75;54.09;100298.75;5096492;28;20491;-48
2023/05/15 11:20:41;;;;;;;1.23;0.50;;;;;;;21.77;54.12;100307.53;5096457;28;20110;-57
2023/05/15 11:23:08;;;;;;;1.77;0.63;;;;;;;21.78;54.17;100310.06;5096343;28;20052;-56
2023/05/15 11:25:36;;;;;;;2.33;0.70;;;;;;;21.77;54.41;100311.06;5096447;28;20055;-57
2023/05/15 11:28:03;;;;;;;3.47;1.10;;;;;;;21.78;54.56;100312.75;5096261;28;20051;-57
2023/05/15 11:30:38;;;;;;;4.05;0.68;;;;;;;21.77;54.50;100321.84;5096155;28;20067;-57
2023/05/15 11:33:08;;;;;;;1.77;0.80;;;;;;;21.78;54.68;100311.91;5095975;28;20051;-57
2023/05/15 11:35:41;;;;;;;1.50;0.73;;;;;;;21.78;54.71;100314.59;5094746;28;20044;-57
2023/05/15 11:38:08;;;;;;;1.50;0.63;;;;;;;21.77;54.62;100308.38;5096180;28;20055;-57